sensor_id;sensor_type;location;lat;lon;timestamp;pressure;altitude;pressure_sealevel;temperature;humidity
64294;BME280;50636;45.596;5.258;2023-03-13T00:01:47;98646.47;;;11.26;77.09
64294;BME280;50636;45.596;5.258;2023-03-13T00:04:15;98646.31;;;11.07;78.13
64294;BME280;50636;45.596;5.258;2023-03-13T00:06:42;98653.38;;;11.07;79.19
64294;BME280;50636;45.596;5.258;2023-03-13T00:09:11;98651.72;;;11.12;80.49
64294;BME280;50636;45.596;5.258;2023-03-13T00:11:38;98644.47;;;11.14;81.33
64294;BME280;50636;45.596;5.258;2023-03-13T00:14:06;98644.09;;;10.97;82.21
64294;BME280;50636;45.596;5.258;2023-03-13T00:16:34;98643.91;;;10.79;82.88
64294;BME280;50636;45.596;5.258;2023-03-13T00:19:03;98641.28;;;10.66;84.58
64294;BME280;50636;45.596;5.258;2023-03-13T00:21:31;98646.53;;;10.66;85.21
64294;BME280;50636;45.596;5.258;2023-03-13T00:23:59;98645.28;;;10.68;84.63
64294;BME280;50636;45.596;5.258;2023-03-13T00:26:27;98643.69;;;10.67;85.23
64294;BME280;50636;45.596;5.258;2023-03-13T00:28:55;98648.53;;;10.70;85.90
64294;BME280;50636;45.596;5.258;2023-03-13T00:31:28;98645.91;;;10.70;85.30
64294;BME280;50636;45.596;5.258;2023-03-13T00:34:02;98640.06;;;10.75;85.05
64294;BME280;50636;45.596;5.258;2023-03-13T00:36:31;98651.78;;;10.79;85.01
64294;BME280;50636;45.596;5.258;2023-03-13T00:38:59;98645.50;;;10.80;85.82
64294;BME280;50636;45.596;5.258;2023-03-13T00:41:29;98644.50;;;10.81;86.32
64294;BME280;50636;45.596;5.258;2023-03-13T00:43:57;98642.50;;;10.83;86.78
64294;BME280;50636;45.596;5.258;2023-03-13T00:46:26;98634.63;;;10.83;85.53
64294;BME280;50636;45.596;5.258;2023-03-13T00:48:53;98636.41;;;10.76;86.55
64294;BME280;50636;45.596;5.258;2023-03-13T00:51:21;98635.22;;;10.85;86.40
64294;BME280;50636;45.596;5.258;2023-03-13T00:53:50;98633.00;;;10.89;86.33
64294;BME280;50636;45.596;5.258;2023-03-13T00:56:18;98637.22;;;10.96;85.45
64294;BME280;50636;45.596;5.258;2023-03-13T00:58:46;98626.69;;;10.96;85.47
64294;BME280;50636;45.596;5.258;2023-03-13T01:01:25;98620.84;;;10.94;86.45
64294;BME280;50636;45.596;5.258;2023-03-13T01:03:58;98618.63;;;10.98;87.40
64294;BME280;50636;45.596;5.258;2023-03-13T01:06:28;98601.88;;;10.99;87.21
64294;BME280;50636;45.596;5.258;2023-03-13T01:08:57;98594.41;;;10.96;86.57
64294;BME280;50636;45.596;5.258;2023-03-13T01:11:26;98605.69;;;10.96;87.12
64294;BME280;50636;45.596;5.258;2023-03-13T01:13:55;98593.56;;;11.02;87.36
64294;BME280;50636;45.596;5.258;2023-03-13T01:16:24;98587.50;;;11.15;85.79
64294;BME280;50636;45.596;5.258;2023-03-13T01:18:55;98583.44;;;11.19;85.09
64294;BME280;50636;45.596;5.258;2023-03-13T01:21:24;98592.28;;;11.25;84.60
64294;BME280;50636;45.596;5.258;2023-03-13T01:23:52;98589.84;;;11.36;84.98
64294;BME280;50636;45.596;5.258;2023-03-13T01:26:20;98585.13;;;11.52;84.50
64294;BME280;50636;45.596;5.258;2023-03-13T01:28:48;98587.72;;;11.58;83.69
64294;BME280;50636;45.596;5.258;2023-03-13T01:31:20;98595.63;;;11.65;84.76
64294;BME280;50636;45.596;5.258;2023-03-13T01:33:50;98600.38;;;11.82;85.30
64294;BME280;50636;45.596;5.258;2023-03-13T01:36:19;98609.63;;;11.97;85.61
64294;BME280;50636;45.596;5.258;2023-03-13T01:38:54;98594.94;;;12.15;85.85
64294;BME280;50636;45.596;5.258;2023-03-13T01:41:22;98603.94;;;12.32;85.78
64294;BME280;50636;45.596;5.258;2023-03-13T01:43:50;98606.09;;;12.42;85.56
64294;BME280;50636;45.596;5.258;2023-03-13T01:46:19;98605.06;;;12.43;84.58
64294;BME280;50636;45.596;5.258;2023-03-13T01:49:10;98609.53;;;12.43;84.62
64294;BME280;50636;45.596;5.258;2023-03-13T01:51:54;98615.44;;;12.38;85.40
64294;BME280;50636;45.596;5.258;2023-03-13T01:57:28;98610.06;;;12.26;85.90
64294;BME280;50636;45.596;5.258;2023-03-13T02:00:32;98603.41;;;12.24;86.24
64294;BME280;50636;45.596;5.258;2023-03-13T02:03:27;98603.41;;;12.24;86.40
64294;BME280;50636;45.596;5.258;2023-03-13T02:05:56;98599.16;;;12.23;86.63
64294;BME280;50636;45.596;5.258;2023-03-13T02:08:58;98604.25;;;12.17;85.67
64294;BME280;50636;45.596;5.258;2023-03-13T02:14:46;98604.47;;;12.16;86.39
64294;BME280;50636;45.596;5.258;2023-03-13T02:17:24;98609.34;;;12.12;86.92
64294;BME280;50636;45.596;5.258;2023-03-13T02:20:06;98597.22;;;12.05;87.55
64294;BME280;50636;45.596;5.258;2023-03-13T02:25:55;98602.22;;;11.74;88.81
64294;BME280;50636;45.596;5.258;2023-03-13T02:28:48;98598.00;;;11.73;90.48
64294;BME280;50636;45.596;5.258;2023-03-13T02:31:21;98603.84;;;11.75;91.18
64294;BME280;50636;45.596;5.258;2023-03-13T02:33:54;98598.59;;;11.75;91.49
64294;BME280;50636;45.596;5.258;2023-03-13T02:36:21;98597.75;;;11.75;91.88
64294;BME280;50636;45.596;5.258;2023-03-13T02:39:04;98600.63;;;11.73;91.88
64294;BME280;50636;45.596;5.258;2023-03-13T02:41:34;98595.97;;;11.69;92.41
64294;BME280;50636;45.596;5.258;2023-03-13T02:44:12;98582.72;;;11.57;91.83
64294;BME280;50636;45.596;5.258;2023-03-13T02:47:08;98567.38;;;11.40;91.33
64294;BME280;50636;45.596;5.258;2023-03-13T02:49:51;98551.84;;;11.39;92.30
64294;BME280;50636;45.596;5.258;2023-03-13T02:52:47;98551.03;;;11.38;91.20
64294;BME280;50636;45.596;5.258;2023-03-13T02:55:49;98555.91;;;11.35;90.10
64294;BME280;50636;45.596;5.258;2023-03-13T02:58:25;98556.53;;;11.30;90.32
64294;BME280;50636;45.596;5.258;2023-03-13T03:01:01;98558.16;;;11.31;91.63
64294;BME280;50636;45.596;5.258;2023-03-13T03:03:53;98560.53;;;11.39;92.44
64294;BME280;50636;45.596;5.258;2023-03-13T03:06:29;98541.13;;;11.40;92.07
64294;BME280;50636;45.596;5.258;2023-03-13T03:08:57;98540.31;;;11.40;92.59
64294;BME280;50636;45.596;5.258;2023-03-13T03:11:31;98539.91;;;11.36;92.62
64294;BME280;50636;45.596;5.258;2023-03-13T03:14:05;98538.97;;;11.31;92.41
64294;BME280;50636;45.596;5.258;2023-03-13T03:16:36;98539.31;;;11.34;93.00
64294;BME280;50636;45.596;5.258;2023-03-13T03:19:12;98537.09;;;11.38;93.33
64294;BME280;50636;45.596;5.258;2023-03-13T03:21:42;98541.09;;;11.47;94.28
64294;BME280;50636;45.596;5.258;2023-03-13T03:24:15;98540.00;;;11.62;94.53
64294;BME280;50636;45.596;5.258;2023-03-13T03:27:01;98537.06;;;11.83;94.66
64294;BME280;50636;45.596;5.258;2023-03-13T03:29:32;98532.78;;;11.95;94.30
64294;BME280;50636;45.596;5.258;2023-03-13T03:32:10;98532.59;;;11.90;90.98
64294;BME280;50636;45.596;5.258;2023-03-13T03:34:47;98531.34;;;11.93;88.80
64294;BME280;50636;45.596;5.258;2023-03-13T03:37:15;98527.19;;;12.10;88.20
64294;BME280;50636;45.596;5.258;2023-03-13T03:40:00;98526.44;;;12.28;87.36
64294;BME280;50636;45.596;5.258;2023-03-13T03:42:26;98520.03;;;12.43;87.57
64294;BME280;50636;45.596;5.258;2023-03-13T03:45:14;98517.22;;;12.44;87.70
64294;BME280;50636;45.596;5.258;2023-03-13T03:47:45;98508.94;;;12.41;87.20
64294;BME280;50636;45.596;5.258;2023-03-13T03:50:23;98503.56;;;12.29;83.88
64294;BME280;50636;45.596;5.258;2023-03-13T03:52:51;98498.44;;;12.15;83.54
64294;BME280;50636;45.596;5.258;2023-03-13T03:55:25;98507.31;;;12.14;84.29
64294;BME280;50636;45.596;5.258;2023-03-13T03:58:03;98512.75;;;12.19;83.24
64294;BME280;50636;45.596;5.258;2023-03-13T04:00:52;98513.78;;;12.18;84.27
64294;BME280;50636;45.596;5.258;2023-03-13T04:03:35;98516.25;;;12.13;83.63
64294;BME280;50636;45.596;5.258;2023-03-13T04:06:22;98506.81;;;12.06;83.92
64294;BME280;50636;45.596;5.258;2023-03-13T04:09:00;98512.97;;;12.18;86.74
64294;BME280;50636;45.596;5.258;2023-03-13T04:11:46;98518.06;;;12.38;87.35
64294;BME280;50636;45.596;5.258;2023-03-13T04:14:19;98508.44;;;12.50;87.47
64294;BME280;50636;45.596;5.258;2023-03-13T04:16:53;98503.69;;;12.59;87.47
64294;BME280;50636;45.596;5.258;2023-03-13T04:19:25;98499.69;;;12.56;87.52
64294;BME280;50636;45.596;5.258;2023-03-13T04:22:00;98508.56;;;12.55;87.73
64294;BME280;50636;45.596;5.258;2023-03-13T04:24:38;98494.91;;;12.65;88.11
64294;BME280;50636;45.596;5.258;2023-03-13T04:27:17;98497.34;;;12.67;87.02
64294;BME280;50636;45.596;5.258;2023-03-13T04:29:50;98492.84;;;12.49;85.93
64294;BME280;50636;45.596;5.258;2023-03-13T04:32:28;98498.41;;;12.41;86.05
64294;BME280;50636;45.596;5.258;2023-03-13T04:34:59;98494.53;;;12.43;86.29
64294;BME280;50636;45.596;5.258;2023-03-13T04:37:34;98488.84;;;12.46;86.58
64294;BME280;50636;45.596;5.258;2023-03-13T04:40:08;98484.38;;;12.47;86.89
64294;BME280;50636;45.596;5.258;2023-03-13T04:42:41;98480.06;;;12.52;86.59
64294;BME280;50636;45.596;5.258;2023-03-13T04:45:30;98468.78;;;12.45;86.58
64294;BME280;50636;45.596;5.258;2023-03-13T04:48:10;98467.91;;;12.33;86.82
64294;BME280;50636;45.596;5.258;2023-03-13T04:50:40;98465.81;;;12.16;86.03
64294;BME280;50636;45.596;5.258;2023-03-13T04:53:11;98462.28;;;12.04;86.93
64294;BME280;50636;45.596;5.258;2023-03-13T04:55:44;98461.75;;;11.95;87.07
64294;BME280;50636;45.596;5.258;2023-03-13T04:58:10;98454.72;;;11.89;87.36
64294;BME280;50636;45.596;5.258;2023-03-13T05:00:39;98464.25;;;11.84;86.98
64294;BME280;50636;45.596;5.258;2023-03-13T05:03:08;98459.84;;;11.77;87.75
64294;BME280;50636;45.596;5.258;2023-03-13T05:05:35;98475.03;;;11.75;88.01
64294;BME280;50636;45.596;5.258;2023-03-13T05:08:02;98461.06;;;11.75;88.57
64294;BME280;50636;45.596;5.258;2023-03-13T05:10:29;98451.38;;;11.75;88.57
64294;BME280;50636;45.596;5.258;2023-03-13T05:12:55;98450.59;;;11.68;88.17
64294;BME280;50636;45.596;5.258;2023-03-13T05:15:23;98448.88;;;11.55;87.60
64294;BME280;50636;45.596;5.258;2023-03-13T05:17:50;98442.94;;;11.35;87.68
64294;BME280;50636;45.596;5.258;2023-03-13T05:20:18;98440.81;;;11.12;87.38
64294;BME280;50636;45.596;5.258;2023-03-13T05:22:44;98433.44;;;10.95;88.17
64294;BME280;50636;45.596;5.258;2023-03-13T05:25:10;98428.81;;;10.84;89.05
64294;BME280;50636;45.596;5.258;2023-03-13T05:27:42;98429.88;;;10.70;89.22
64294;BME280;50636;45.596;5.258;2023-03-13T05:30:17;98434.38;;;10.63;89.83
64294;BME280;50636;45.596;5.258;2023-03-13T05:32:44;98439.63;;;10.63;90.43
64294;BME280;50636;45.596;5.258;2023-03-13T05:35:11;98432.34;;;10.58;90.97
64294;BME280;50636;45.596;5.258;2023-03-13T05:37:39;98432.34;;;10.58;90.68
64294;BME280;50636;45.596;5.258;2023-03-13T05:40:07;98429.31;;;10.61;90.74
64294;BME280;50636;45.596;5.258;2023-03-13T05:42:35;98437.38;;;10.59;90.08
64294;BME280;50636;45.596;5.258;2023-03-13T05:45:02;98423.66;;;10.57;90.16
64294;BME280;50636;45.596;5.258;2023-03-13T05:47:30;98421.03;;;10.57;90.20
64294;BME280;50636;45.596;5.258;2023-03-13T05:50:10;98417.03;;;10.55;90.15
64294;BME280;50636;45.596;5.258;2023-03-13T05:52:37;98423.28;;;10.61;90.03
64294;BME280;50636;45.596;5.258;2023-03-13T05:55:05;98423.25;;;10.67;89.57
64294;BME280;50636;45.596;5.258;2023-03-13T05:57:32;98425.44;;;10.77;89.48
64294;BME280;50636;45.596;5.258;2023-03-13T06:00:00;98426.78;;;10.86;89.26
64294;BME280;50636;45.596;5.258;2023-03-13T06:02:29;98428.78;;;10.97;88.85
64294;BME280;50636;45.596;5.258;2023-03-13T06:04:56;98424.31;;;11.05;89.09
64294;BME280;50636;45.596;5.258;2023-03-13T06:07:25;98423.63;;;11.16;88.55
64294;BME280;50636;45.596;5.258;2023-03-13T06:09:54;98416.88;;;11.27;88.55
64294;BME280;50636;45.596;5.258;2023-03-13T06:12:21;98401.94;;;11.27;87.88
64294;BME280;50636;45.596;5.258;2023-03-13T06:14:47;98397.53;;;11.21;87.37
64294;BME280;50636;45.596;5.258;2023-03-13T06:17:16;98396.16;;;11.12;87.03
64294;BME280;50636;45.596;5.258;2023-03-13T06:19:46;98394.44;;;10.99;87.27
64294;BME280;50636;45.596;5.258;2023-03-13T06:22:14;98389.97;;;10.99;87.60
64294;BME280;50636;45.596;5.258;2023-03-13T06:25:27;98400.69;;;11.05;87.59
64294;BME280;50636;45.596;5.258;2023-03-13T06:27:56;98397.63;;;11.08;87.26
64294;BME280;50636;45.596;5.258;2023-03-13T06:30:44;98392.59;;;10.99;86.02
64294;BME280;50636;45.596;5.258;2023-03-13T06:33:11;98373.78;;;11.03;86.28
64294;BME280;50636;45.596;5.258;2023-03-13T06:35:42;98365.00;;;11.22;86.28
64294;BME280;50636;45.596;5.258;2023-03-13T06:38:26;98363.84;;;11.43;85.13
64294;BME280;50636;45.596;5.258;2023-03-13T06:40:55;98364.91;;;11.60;84.83
64294;BME280;50636;45.596;5.258;2023-03-13T06:43:40;98370.28;;;11.72;83.70
64294;BME280;50636;45.596;5.258;2023-03-13T06:46:28;98358.47;;;11.82;82.59
64294;BME280;50636;45.596;5.258;2023-03-13T06:49:17;98358.63;;;11.87;82.04
64294;BME280;50636;45.596;5.258;2023-03-13T06:51:50;98363.03;;;11.93;81.51
64294;BME280;50636;45.596;5.258;2023-03-13T06:54:26;98368.88;;;12.20;81.12
64294;BME280;50636;45.596;5.258;2023-03-13T06:56:55;98371.28;;;12.58;79.79
64294;BME280;50636;45.596;5.258;2023-03-13T06:59:25;98370.44;;;13.07;78.84
64294;BME280;50636;45.596;5.258;2023-03-13T07:02:00;98371.16;;;13.56;76.97
64294;BME280;50636;45.596;5.258;2023-03-13T07:04:29;98368.06;;;14.18;74.77
64294;BME280;50636;45.596;5.258;2023-03-13T07:07:17;98352.31;;;15.16;72.57
64294;BME280;50636;45.596;5.258;2023-03-13T07:09:49;98359.53;;;15.54;68.89
64294;BME280;50636;45.596;5.258;2023-03-13T07:12:19;98349.78;;;15.89;67.38
64294;BME280;50636;45.596;5.258;2023-03-13T07:14:56;98349.75;;;16.50;63.77
64294;BME280;50636;45.596;5.258;2023-03-13T07:17:25;98346.75;;;17.12;61.69
64294;BME280;50636;45.596;5.258;2023-03-13T07:19:57;98341.28;;;17.89;60.04
64294;BME280;50636;45.596;5.258;2023-03-13T07:22:26;98328.59;;;18.64;56.69
64294;BME280;50636;45.596;5.258;2023-03-13T07:24:58;98336.16;;;19.39;54.72
64294;BME280;50636;45.596;5.258;2023-03-13T07:27:33;98333.69;;;20.14;50.83
64294;BME280;50636;45.596;5.258;2023-03-13T07:30:03;98327.97;;;20.97;48.88
64294;BME280;50636;45.596;5.258;2023-03-13T07:32:46;98323.19;;;21.67;48.78
64294;BME280;50636;45.596;5.258;2023-03-13T07:35:22;98320.75;;;22.43;45.99
64294;BME280;50636;45.596;5.258;2023-03-13T07:38:11;98326.94;;;23.01;44.50
64294;BME280;50636;45.596;5.258;2023-03-13T07:40:45;98332.94;;;22.92;41.82
64294;BME280;50636;45.596;5.258;2023-03-13T07:46:21;98335.50;;;21.29;44.05
64294;BME280;50636;45.596;5.258;2023-03-13T07:49:01;98322.06;;;20.55;44.45
64294;BME280;50636;45.596;5.258;2023-03-13T07:51:58;98323.88;;;19.94;44.02
64294;BME280;50636;45.596;5.258;2023-03-13T07:54:39;98331.09;;;19.58;43.82
64294;BME280;50636;45.596;5.258;2023-03-13T07:57:06;98322.06;;;19.33;43.45
64294;BME280;50636;45.596;5.258;2023-03-13T07:59:35;98330.03;;;19.13;43.63
64294;BME280;50636;45.596;5.258;2023-03-13T08:02:01;98345.69;;;18.99;44.17
64294;BME280;50636;45.596;5.258;2023-03-13T08:04:28;98340.38;;;18.89;43.90
64294;BME280;50636;45.596;5.258;2023-03-13T08:06:55;98319.28;;;18.62;43.20
64294;BME280;50636;45.596;5.258;2023-03-13T08:09:22;98322.94;;;18.50;44.29
64294;BME280;50636;45.596;5.258;2023-03-13T08:11:55;98316.09;;;18.65;43.88
64294;BME280;50636;45.596;5.258;2023-03-13T08:14:43;98313.00;;;19.29;43.90
64294;BME280;50636;45.596;5.258;2023-03-13T08:17:11;98304.81;;;20.37;41.37
64294;BME280;50636;45.596;5.258;2023-03-13T08:19:45;98292.28;;;20.43;40.58
64294;BME280;50636;45.596;5.258;2023-03-13T08:22:20;98286.00;;;20.13;41.21
64294;BME280;50636;45.596;5.258;2023-03-13T08:24:47;98285.81;;;19.84;41.65
64294;BME280;50636;45.596;5.258;2023-03-13T08:27:14;98280.00;;;19.56;41.68
64294;BME280;50636;45.596;5.258;2023-03-13T08:29:41;98259.00;;;19.29;42.06
64294;BME280;50636;45.596;5.258;2023-03-13T08:32:08;98249.72;;;19.06;41.97
64294;BME280;50636;45.596;5.258;2023-03-13T08:34:35;98265.66;;;18.80;43.12
64294;BME280;50636;45.596;5.258;2023-03-13T08:37:04;98246.72;;;18.76;43.16
64294;BME280;50636;45.596;5.258;2023-03-13T08:39:31;98252.84;;;18.77;42.00
64294;BME280;50636;45.596;5.258;2023-03-13T08:41:58;98250.72;;;18.64;43.05
64294;BME280;50636;45.596;5.258;2023-03-13T08:44:25;98235.28;;;18.66;42.72
64294;BME280;50636;45.596;5.258;2023-03-13T08:47:07;98245.41;;;18.74;42.48
64294;BME280;50636;45.596;5.258;2023-03-13T08:49:40;98228.94;;;18.87;42.38
64294;BME280;50636;45.596;5.258;2023-03-13T08:54:52;98228.94;;;19.13;41.63
64294;BME280;50636;45.596;5.258;2023-03-13T08:57:20;98238.47;;;19.55;42.50
64294;BME280;50636;45.596;5.258;2023-03-13T08:59:48;98230.41;;;19.91;40.38
64294;BME280;50636;45.596;5.258;2023-03-13T09:02:17;98230.38;;;20.01;40.30
64294;BME280;50636;45.596;5.258;2023-03-13T09:04:47;98225.31;;;20.00;39.96
64294;BME280;50636;45.596;5.258;2023-03-13T09:07:14;98211.59;;;20.27;39.66
64294;BME280;50636;45.596;5.258;2023-03-13T09:09:42;98213.59;;;20.90;37.74
64294;BME280;50636;45.596;5.258;2023-03-13T09:12:13;98219.19;;;20.88;37.85
64294;BME280;50636;45.596;5.258;2023-03-13T09:14:41;98203.53;;;20.82;37.41
64294;BME280;50636;45.596;5.258;2023-03-13T09:17:09;98220.91;;;20.74;37.09
64294;BME280;50636;45.596;5.258;2023-03-13T09:19:36;98199.38;;;21.00;36.30
64294;BME280;50636;45.596;5.258;2023-03-13T09:22:03;98203.25;;;20.83;36.94
64294;BME280;50636;45.596;5.258;2023-03-13T09:24:31;98211.94;;;20.60;36.99
64294;BME280;50636;45.596;5.258;2023-03-13T09:26:58;98207.19;;;20.51;37.37
64294;BME280;50636;45.596;5.258;2023-03-13T09:29:26;98202.31;;;20.19;37.03
64294;BME280;50636;45.596;5.258;2023-03-13T09:32:05;98198.75;;;19.84;39.14
64294;BME280;50636;45.596;5.258;2023-03-13T09:34:31;98193.38;;;19.94;39.85
64294;BME280;50636;45.596;5.258;2023-03-13T09:37:29;98189.84;;;20.88;37.28
64294;BME280;50636;45.596;5.258;2023-03-13T09:39:57;98191.44;;;21.96;35.26
64294;BME280;50636;45.596;5.258;2023-03-13T09:42:54;98171.81;;;22.25;33.56
64294;BME280;50636;45.596;5.258;2023-03-13T09:45:41;98165.28;;;23.02;33.14
64294;BME280;50636;45.596;5.258;2023-03-13T09:48:31;98162.25;;;23.91;30.79
64294;BME280;50636;45.596;5.258;2023-03-13T09:51:38;98158.28;;;23.47;31.13
64294;BME280;50636;45.596;5.258;2023-03-13T09:54:37;98170.41;;;22.98;31.10
64294;BME280;50636;45.596;5.258;2023-03-13T10:02:47;98160.19;;;22.16;32.81
64294;BME280;50636;45.596;5.258;2023-03-13T10:05:30;98150.13;;;21.45;34.20
64294;BME280;50636;45.596;5.258;2023-03-13T10:08:18;98129.03;;;21.14;34.41
64294;BME280;50636;45.596;5.258;2023-03-13T10:19:18;98156.34;;;20.38;36.47
64294;BME280;50636;45.596;5.258;2023-03-13T10:22:30;98148.53;;;20.51;37.02
64294;BME280;50636;45.596;5.258;2023-03-13T10:27:54;98145.03;;;20.90;35.96
64294;BME280;50636;45.596;5.258;2023-03-13T10:30:42;98132.94;;;20.98;36.47
64294;BME280;50636;45.596;5.258;2023-03-13T10:33:42;98124.56;;;21.34;35.97
64294;BME280;50636;45.596;5.258;2023-03-13T10:36:12;98133.47;;;21.53;36.00
64294;BME280;50636;45.596;5.258;2023-03-13T10:39:07;98122.59;;;21.88;35.40
64294;BME280;50636;45.596;5.258;2023-03-13T10:41:36;98120.16;;;21.91;36.10
64294;BME280;50636;45.596;5.258;2023-03-13T10:44:11;98116.53;;;22.01;35.16
64294;BME280;50636;45.596;5.258;2023-03-13T10:46:46;98104.63;;;22.12;35.52
64294;BME280;50636;45.596;5.258;2023-03-13T10:49:23;98092.63;;;22.10;34.88
64294;BME280;50636;45.596;5.258;2023-03-13T10:52:35;98098.19;;;22.32;34.78
64294;BME280;50636;45.596;5.258;2023-03-13T10:55:30;98084.66;;;22.43;34.00
64294;BME280;50636;45.596;5.258;2023-03-13T10:58:59;98084.53;;;22.34;35.15
64294;BME280;50636;45.596;5.258;2023-03-13T11:01:27;98090.72;;;22.48;34.62
64294;BME280;50636;45.596;5.258;2023-03-13T11:03:58;98067.03;;;22.88;34.45
64294;BME280;50636;45.596;5.258;2023-03-13T11:07:15;98063.53;;;24.07;32.71
64294;BME280;50636;45.596;5.258;2023-03-13T11:10:18;98043.69;;;24.94;30.83
64294;BME280;50636;45.596;5.258;2023-03-13T11:12:45;98044.00;;;25.01;30.54
64294;BME280;50636;45.596;5.258;2023-03-13T11:15:25;98046.66;;;25.23;30.29
64294;BME280;50636;45.596;5.258;2023-03-13T11:18:36;98046.38;;;24.94;31.19
64294;BME280;50636;45.596;5.258;2023-03-13T11:21:06;98018.28;;;25.00;30.99
64294;BME280;50636;45.596;5.258;2023-03-13T11:24:26;98042.63;;;24.72;31.38
64294;BME280;50636;45.596;5.258;2023-03-13T11:30:55;98025.25;;;24.16;32.31
64294;BME280;50636;45.596;5.258;2023-03-13T11:34:11;98006.72;;;24.28;31.89
64294;BME280;50636;45.596;5.258;2023-03-13T11:37:12;97980.44;;;23.85;32.51
64294;BME280;50636;45.596;5.258;2023-03-13T11:40:20;97977.81;;;23.57;33.07
64294;BME280;50636;45.596;5.258;2023-03-13T11:54:29;97938.47;;;23.44;34.10
64294;BME280;50636;45.596;5.258;2023-03-13T11:57:42;97938.47;;;23.44;34.00
64294;BME280;50636;45.596;5.258;2023-03-13T12:01:12;97931.72;;;23.10;35.46
64294;BME280;50636;45.596;5.258;2023-03-13T12:07:25;97897.09;;;23.50;35.63
64294;BME280;50636;45.596;5.258;2023-03-13T12:10:14;97895.69;;;23.75;34.82
64294;BME280;50636;45.596;5.258;2023-03-13T12:15:45;97889.25;;;23.99;35.60
64294;BME280;50636;45.596;5.258;2023-03-13T12:18:44;97877.00;;;24.15;35.32
64294;BME280;50636;45.596;5.258;2023-03-13T12:26:48;97831.19;;;23.40;35.71
64294;BME280;50636;45.596;5.258;2023-03-13T12:35:55;97809.34;;;24.76;34.84
64294;BME280;50636;45.596;5.258;2023-03-13T12:38:55;97781.56;;;24.98;34.33
64294;BME280;50636;45.596;5.258;2023-03-13T12:45:06;97778.44;;;25.60;34.01
64294;BME280;50636;45.596;5.258;2023-03-13T12:48:18;97776.72;;;26.33;33.06
64294;BME280;50636;45.596;5.258;2023-03-13T12:54:32;97752.97;;;26.56;31.88
64294;BME280;50636;45.596;5.258;2023-03-13T12:57:21;97744.44;;;26.54;33.08
64294;BME280;50636;45.596;5.258;2023-03-13T12:59:58;97727.72;;;26.69;31.95
64294;BME280;50636;45.596;5.258;2023-03-13T13:02:46;97732.16;;;26.44;32.39
64294;BME280;50636;45.596;5.258;2023-03-13T13:05:33;97714.66;;;26.59;32.18
64294;BME280;50636;45.596;5.258;2023-03-13T13:09:01;97705.00;;;26.37;32.25
64294;BME280;50636;45.596;5.258;2023-03-13T13:11:45;97681.22;;;25.97;32.53
64294;BME280;50636;45.596;5.258;2023-03-13T13:17:19;97631.81;;;25.12;33.52
64294;BME280;50636;45.596;5.258;2023-03-13T13:19:50;97666.19;;;24.71;34.86
64294;BME280;50636;45.596;5.258;2023-03-13T13:32:46;97639.50;;;24.49;35.55
64294;BME280;50636;45.596;5.258;2023-03-13T13:35:33;97626.09;;;24.31;35.73
64294;BME280;50636;45.596;5.258;2023-03-13T13:41:04;97605.41;;;23.88;36.80
64294;BME280;50636;45.596;5.258;2023-03-13T13:43:36;97587.28;;;23.77;37.24
64294;BME280;50636;45.596;5.258;2023-03-13T13:46:26;97579.22;;;23.59;37.41
64294;BME280;50636;45.596;5.258;2023-03-13T13:51:34;97589.56;;;23.52;37.51
64294;BME280;50636;45.596;5.258;2023-03-13T13:57:25;97587.84;;;23.39;38.41
64294;BME280;50636;45.596;5.258;2023-03-13T14:03:17;97578.38;;;23.32;38.40
64294;BME280;50636;45.596;5.258;2023-03-13T14:06:29;97563.56;;;23.44;38.20
64294;BME280;50636;45.596;5.258;2023-03-13T14:12:01;97570.22;;;23.55;38.09
64294;BME280;50636;45.596;5.258;2023-03-13T14:14:28;97551.47;;;23.55;38.35
64294;BME280;50636;45.596;5.258;2023-03-13T14:17:08;97554.94;;;23.47;37.84
64294;BME280;50636;45.596;5.258;2023-03-13T14:19:41;97544.63;;;23.14;38.54
64294;BME280;50636;45.596;5.258;2023-03-13T14:22:13;97551.72;;;22.87;38.91
64294;BME280;50636;45.596;5.258;2023-03-13T14:24:56;97529.44;;;22.69;38.58
64294;BME280;50636;45.596;5.258;2023-03-13T14:27:43;97528.06;;;22.41;39.43
64294;BME280;50636;45.596;5.258;2023-03-13T14:30:23;97538.41;;;22.33;40.12
64294;BME280;50636;45.596;5.258;2023-03-13T14:32:59;97548.38;;;22.42;40.00
64294;BME280;50636;45.596;5.258;2023-03-13T14:35:38;97523.56;;;22.50;39.94
64294;BME280;50636;45.596;5.258;2023-03-13T14:38:06;97511.72;;;22.42;40.34
64294;BME280;50636;45.596;5.258;2023-03-13T14:40:41;97499.09;;;22.34;40.18
64294;BME280;50636;45.596;5.258;2023-03-13T14:46:14;97525.38;;;22.41;40.20
64294;BME280;50636;45.596;5.258;2023-03-13T14:48:42;97514.56;;;22.46;39.75
64294;BME280;50636;45.596;5.258;2023-03-13T14:51:15;97503.06;;;22.45;39.80
64294;BME280;50636;45.596;5.258;2023-03-13T14:54:02;97495.47;;;22.30;40.33
64294;BME280;50636;45.596;5.258;2023-03-13T14:56:37;97491.00;;;22.25;40.18
64294;BME280;50636;45.596;5.258;2023-03-13T14:59:38;97496.28;;;22.17;40.65
64294;BME280;50636;45.596;5.258;2023-03-13T15:02:33;97487.13;;;22.09;40.49
64294;BME280;50636;45.596;5.258;2023-03-13T15:05:05;97465.72;;;22.09;41.21
64294;BME280;50636;45.596;5.258;2023-03-13T15:07:58;97457.88;;;22.04;41.24
64294;BME280;50636;45.596;5.258;2023-03-13T15:10:48;97461.44;;;21.99;41.58
64294;BME280;50636;45.596;5.258;2023-03-13T15:13:26;97440.78;;;22.13;41.22
64294;BME280;50636;45.596;5.258;2023-03-13T15:16:22;97441.88;;;22.12;41.39
64294;BME280;50636;45.596;5.258;2023-03-13T15:18:50;97424.03;;;21.99;41.67
64294;BME280;50636;45.596;5.258;2023-03-13T15:21:27;97424.56;;;22.10;41.91
64294;BME280;50636;45.596;5.258;2023-03-13T15:24:15;97415.81;;;22.18;42.45
64294;BME280;50636;45.596;5.258;2023-03-13T15:26:42;97412.28;;;22.31;42.43
64294;BME280;50636;45.596;5.258;2023-03-13T15:29:14;97363.56;;;22.43;41.85
64294;BME280;50636;45.596;5.258;2023-03-13T15:31:47;97421.88;;;22.32;41.61
64294;BME280;50636;45.596;5.258;2023-03-13T15:34:14;97444.28;;;22.23;42.56
64294;BME280;50636;45.596;5.258;2023-03-13T15:36:42;97384.81;;;22.17;42.16